Time;durP1;ratioP1;P1;durP2;ratioP2;P2;SDS_P1;SDS_P2;PMS_P1;PMS_P2;Temp;Humidity;BMP_temperature;BMP_pressure;BME280_temperature;BME280_humidity;BME280_pressure;Samples;Min_cycle;Max_cycle;Signal;HPM_P1;HPM_P2
2023/10/01 00:01:37;;;;;;;3.10;2.80;;;;;;;11.55;65.46;99873.34;5118181;27;41139;-81
2023/10/01 00:04:06;;;;;;;4.03;2.57;;;;;;;11.52;65.05;99871.69;5135145;27;42779;-83
2023/10/01 00:06:34;;;;;;;5.40;2.50;;;;;;;11.50;65.18;99870.03;5135228;27;42324;-82
2023/10/01 00:09:05;;;;;;;3.20;2.27;;;;;;;11.46;65.48;99872.00;5117782;27;39101;-82
2023/10/01 00:11:33;;;;;;;5.03;2.93;;;;;;;11.40;65.63;99866.13;5117751;27;41095;-82
2023/10/01 00:14:01;;;;;;;4.07;2.50;;;;;;;11.41;65.69;99867.84;5136210;27;43600;-82
2023/10/01 00:16:30;;;;;;;4.10;2.40;;;;;;;11.38;65.75;99862.69;5119050;27;41404;-83
2023/10/01 00:18:59;;;;;;;3.07;2.40;;;;;;;11.26;65.83;99842.09;5135812;27;38926;-83
2023/10/01 00:21:28;;;;;;;2.73;2.20;;;;;;;11.23;65.60;99847.56;5137847;27;41392;-82
2023/10/01 00:23:55;;;;;;;4.57;2.83;;;;;;;11.31;65.88;99866.59;5122600;27;42936;-81
2023/10/01 00:26:23;;;;;;;5.50;2.70;;;;;;;11.22;66.10;99856.44;5122588;27;40581;-82
2023/10/01 00:28:51;;;;;;;4.87;3.03;;;;;;;11.15;66.11;99851.44;5139886;27;40932;-82
2023/10/01 00:31:19;;;;;;;6.63;2.57;;;;;;;11.24;66.00;99859.91;5140210;27;42248;-81
2023/10/01 00:33:48;;;;;;;5.37;3.00;;;;;;;11.22;66.19;99861.75;5139436;27;42671;-82
2023/10/01 00:36:17;;;;;;;3.57;1.97;;;;;;;11.19;66.17;99870.72;5122534;27;42030;-82
2023/10/01 00:38:45;;;;;;;3.30;2.27;;;;;;;11.11;66.21;99854.34;5138951;27;40690;-82
2023/10/01 00:41:12;;;;;;;3.60;2.33;;;;;;;11.14;66.05;99859.47;5122008;27;40874;-83
2023/10/01 00:43:41;;;;;;;2.83;2.47;;;;;;;11.08;66.61;99850.03;5120090;27;41779;-82
2023/10/01 00:46:09;;;;;;;3.17;2.77;;;;;;;11.09;66.69;99851.75;5138322;27;41274;-82
2023/10/01 00:48:37;;;;;;;4.27;2.40;;;;;;;11.10;66.55;99856.13;5104114;27;39341;-82
2023/10/01 00:51:06;;;;;;;3.30;2.23;;;;;;;10.96;67.03;99840.03;5121133;27;41026;-83
2023/10/01 00:53:34;;;;;;;3.93;2.20;;;;;;;11.07;66.89;99858.91;5138032;27;42722;-83
2023/10/01 00:56:03;;;;;;;4.03;2.20;;;;;;;10.97;67.08;99844.41;5121083;27;41126;-82
2023/10/01 00:58:31;;;;;;;4.27;2.80;;;;;;;11.03;66.86;99857.34;5120390;27;38923;-82
2023/10/01 01:00:59;;;;;;;3.83;2.67;;;;;;;11.03;67.25;99852.03;5120909;27;42344;-82
2023/10/01 01:03:26;;;;;;;3.77;2.90;;;;;;;10.92;67.11;99845.53;5138003;27;42761;-82
2023/10/01 01:06:13;;;;;;;5.50;2.90;;;;;;;11.00;67.11;99868.06;5120488;27;41305;-83
2023/10/01 01:08:52;;;;;;;4.37;2.70;;;;;;;10.97;67.25;99878.84;5120366;27;40011;-82
2023/10/01 01:11:21;;;;;;;3.93;2.50;;;;;;;10.95;66.86;99880.72;5135090;27;41652;-82
2023/10/01 01:13:51;;;;;;;5.77;2.63;;;;;;;10.90;66.91;99871.25;5121545;27;42244;-80
2023/10/01 01:16:19;;;;;;;4.60;2.60;;;;;;;10.89;66.95;99875.69;5139081;27;42344;-82
2023/10/01 01:18:51;;;;;;;4.77;2.70;;;;;;;10.87;67.07;99874.94;5121108;27;38541;-82
2023/10/01 01:21:20;;;;;;;2.70;2.23;;;;;;;10.71;66.91;99850.06;5154665;27;41942;-83
2023/10/01 01:23:50;;;;;;;3.97;2.37;;;;;;;10.82;66.92;99865.47;5127027;27;42874;-81
2023/10/01 01:26:20;;;;;;;3.60;2.33;;;;;;;10.69;66.95;99857.22;5163322;27;43564;-83
2023/10/01 01:28:48;;;;;;;4.30;2.40;;;;;;;10.70;66.92;99864.25;5147951;27;40686;-81
2023/10/01 01:31:16;;;;;;;4.20;2.77;;;;;;;10.73;66.83;99880.88;5122012;27;40654;-83
2023/10/01 01:33:52;;;;;;;5.20;3.00;;;;;;;10.36;67.29;99818.16;5117803;27;41957;-83
2023/10/01 01:36:20;;;;;;;4.23;2.43;;;;;;;10.56;67.04;99845.50;5134560;27;42394;-82
2023/10/01 01:39:09;;;;;;;3.50;2.23;;;;;;;10.66;67.81;99858.22;5136957;27;39645;-82
2023/10/01 01:41:42;;;;;;;4.47;2.77;;;;;;;10.66;67.88;99857.38;5134901;27;41907;-81
2023/10/01 01:44:13;;;;;;;3.37;2.73;;;;;;;10.66;69.09;99841.47;5119949;27;41957;-83
2023/10/01 01:46:47;;;;;;;5.27;3.13;;;;;;;10.65;70.14;99837.97;5120203;27;41144;-83
2023/10/01 01:49:17;;;;;;;4.43;2.90;;;;;;;10.67;69.96;99832.59;5119882;27;39730;-81
2023/10/01 01:51:57;;;;;;;4.00;2.93;;;;;;;10.65;70.21;99823.84;5137350;27;41953;-82
2023/10/01 01:54:28;;;;;;;6.30;3.83;;;;;;;10.63;69.92;99821.28;5137736;27;41240;-82
2023/10/01 01:56:56;;;;;;;4.87;3.30;;;;;;;10.61;69.96;99815.22;5120342;27;41339;-81
2023/10/01 01:59:27;;;;;;;4.67;3.30;;;;;;;10.72;69.58;99827.94;5136970;27;40161;-82
2023/10/01 02:01:56;;;;;;;4.20;2.97;;;;;;;10.72;69.65;99825.31;5134257;27;42557;-82
2023/10/01 02:04:24;;;;;;;4.73;2.93;;;;;;;10.71;69.50;99823.59;5119831;27;41505;-81
2023/10/01 02:06:52;;;;;;;4.10;2.90;;;;;;;10.64;69.46;99801.81;5136517;27;42278;-82
2023/10/01 02:09:24;;;;;;;3.90;2.93;;;;;;;10.70;69.53;99813.91;5136752;27;40182;-82
2023/10/01 02:11:53;;;;;;;5.10;3.03;;;;;;;10.68;69.29;99810.47;5120014;27;40703;-82
2023/10/01 02:14:35;;;;;;;5.33;3.20;;;;;;;10.69;69.24;99814.84;5120620;27;42563;-81
2023/10/01 02:17:13;;;;;;;6.27;3.07;;;;;;;10.68;68.95;99813.97;5137942;27;41421;-82
2023/10/01 02:19:41;;;;;;;5.00;2.77;;;;;;;10.66;69.10;99810.53;5138040;27;40991;-82
2023/10/01 02:22:12;;;;;;;4.00;2.40;;;;;;;10.66;69.19;99809.69;5138198;27;42450;-80
2023/10/01 02:24:54;;;;;;;4.33;2.50;;;;;;;10.66;69.21;99804.38;5137593;27;43714;-83
2023/10/01 02:27:26;;;;;;;2.80;2.37;;;;;;;10.62;69.29;99806.34;5134808;27;42324;-81
2023/10/01 02:30:14;;;;;;;4.07;2.87;;;;;;;10.51;69.14;99789.25;5119817;27;41634;-83
2023/10/01 02:33:15;;;;;;;2.33;2.13;;;;;;;10.58;69.14;99811.84;5132972;27;41720;-82
2023/10/01 02:35:41;;;;;;;3.23;2.23;;;;;;;10.54;68.91;99824.38;5118931;27;41264;-81
2023/10/01 02:38:36;;;;;;;3.93;2.50;;;;;;;10.52;68.87;99820.06;5120464;27;42339;-81
2023/10/01 02:40:58;;;;;;;2.37;2.00;;;;;;;10.36;68.85;99796.97;5139395;27;40902;-81
2023/10/01 02:43:33;;;;;;;3.37;2.10;;;;;;;10.44;68.84;99815.13;5138860;27;41421;-83
2023/10/01 02:46:04;;;;;;;5.00;2.73;;;;;;;10.43;69.22;99810.78;5135896;27;43929;-83
2023/10/01 02:48:31;;;;;;;5.30;2.60;;;;;;;10.41;69.51;99810.84;5138553;27;42711;-81
2023/10/01 02:51:14;;;;;;;2.67;2.10;;;;;;;10.40;69.13;99806.47;5157216;27;40010;-83
2023/10/01 02:54:01;;;;;;;4.67;2.80;;;;;;;10.18;69.41;99768.69;5121172;27;42818;-83
2023/10/01 02:56:32;;;;;;;2.83;2.23;;;;;;;10.36;69.46;99807.56;5121941;27;41834;-82
2023/10/01 02:59:08;;;;;;;3.50;2.57;;;;;;;10.35;69.40;99811.13;5121117;27;42661;-83
2023/10/01 03:01:36;;;;;;;4.77;2.80;;;;;;;10.34;69.45;99814.72;5133373;27;39922;-82
2023/10/01 03:04:10;;;;;;;4.37;2.50;;;;;;;10.32;69.47;99810.41;5118720;27;41755;-82
2023/10/01 03:06:42;;;;;;;3.93;2.47;;;;;;;10.28;69.50;99812.34;5134484;27;43992;-83
2023/10/01 03:09:22;;;;;;;6.13;3.23;;;;;;;10.27;69.53;99823.84;5118558;27;41391;-82
2023/10/01 03:11:53;;;;;;;3.03;2.23;;;;;;;10.24;69.24;99824.00;5151616;27;40183;-82
2023/10/01 03:14:26;;;;;;;3.30;2.47;;;;;;;10.21;69.37;99834.72;5137167;27;41844;-82
2023/10/01 03:16:57;;;;;;;4.83;2.87;;;;;;;10.17;69.18;99827.81;5133926;27;43347;-82
2023/10/01 03:19:26;;;;;;;3.67;2.47;;;;;;;10.14;69.22;99827.94;5119635;27;41515;-84
2023/10/01 03:24:51;;;;;;;3.87;2.50;;;;;;;9.97;69.04;99809.34;5054599;28;41975;-84
2023/10/01 03:27:25;;;;;;;4.20;3.03;;;;;;;10.03;69.16;99832.88;5117239;27;41845;-82
2023/10/01 03:30:03;;;;;;;3.37;2.60;;;;;;;9.90;69.13;99818.47;5136591;27;42443;-83
2023/10/01 03:32:32;;;;;;;2.80;2.30;;;;;;;9.86;69.13;99811.63;5152110;27;40919;-82
2023/10/01 03:35:07;;;;;;;4.43;2.60;;;;;;;9.96;69.10;99824.34;5119792;27;40678;-83
2023/10/01 03:37:39;;;;;;;4.60;2.67;;;;;;;9.94;69.15;99814.75;5119206;27;42944;-83
2023/10/01 03:40:18;;;;;;;4.17;2.80;;;;;;;9.92;68.93;99812.19;5136721;27;41482;-83
2023/10/01 03:42:50;;;;;;;3.70;2.40;;;;;;;9.91;68.89;99810.47;5131940;27;40961;-83
2023/10/01 03:45:37;;;;;;;4.17;2.33;;;;;;;9.90;69.14;99798.16;5132382;27;42803;-82
2023/10/01 03:48:07;;;;;;;3.10;2.60;;;;;;;9.90;69.83;99787.56;5118648;27;41808;-83
2023/10/01 03:50:45;;;;;;;3.70;2.77;;;;;;;9.85;70.31;99762.25;5153715;27;42196;-83
2023/10/01 03:53:17;;;;;;;7.33;3.63;;;;;;;9.82;70.76;99757.97;5151495;27;40994;-84
2023/10/01 03:55:46;;;;;;;5.10;3.10;;;;;;;9.90;70.50;99771.69;5131610;27;41791;-83
2023/10/01 03:58:26;;;;;;;4.67;2.80;;;;;;;9.93;70.40;99786.59;5117949;27;42906;-82
2023/10/01 04:00:55;;;;;;;5.37;2.57;;;;;;;9.94;70.27;99796.25;5118360;27;42747;-82
2023/10/01 04:03:22;;;;;;;3.47;2.70;;;;;;;9.83;70.11;99780.00;5118032;27;39032;-83
2023/10/01 04:05:56;;;;;;;3.87;2.73;;;;;;;9.81;70.17;99782.69;5117728;27;42153;-83
2023/10/01 04:08:24;;;;;;;3.10;2.70;;;;;;;9.89;70.41;99806.19;5135255;27;42814;-82
2023/10/01 04:10:58;;;;;;;5.40;3.10;;;;;;;9.85;70.51;99800.16;5135224;27;41541;-83
2023/10/01 04:13:27;;;;;;;3.80;2.50;;;;;;;9.83;70.56;99799.38;5136144;27;38918;-82
2023/10/01 04:15:57;;;;;;;3.70;2.80;;;;;;;9.67;70.67;99785.94;5119250;27;41892;-82
2023/10/01 04:18:28;;;;;;;3.20;2.30;;;;;;;9.70;70.11;99796.41;5118901;27;41948;-83
2023/10/01 04:21:24;;;;;;;4.13;2.50;;;;;;;9.69;69.97;99802.63;5118705;27;41253;-83
2023/10/01 04:23:54;;;;;;;3.30;2.70;;;;;;;9.68;70.13;99808.84;5134407;27;41661;-83
2023/10/01 04:26:23;;;;;;;2.50;1.73;;;;;;;9.66;70.04;99810.69;5119211;27;43324;-83
2023/10/01 04:28:54;;;;;;;2.60;2.30;;;;;;;9.67;70.17;99808.91;5118730;27;42883;-83
2023/10/01 04:34:05;;;;;;;4.80;2.77;;;;;;;9.63;70.04;99813.47;5133815;27;38910;-82
2023/10/01 04:36:33;;;;;;;3.63;2.60;;;;;;;9.62;70.19;99819.69;5156943;27;41967;-83
2023/10/01 04:39:01;;;;;;;4.87;2.73;;;;;;;9.61;70.00;99812.69;5136422;27;42693;-82
2023/10/01 04:41:28;;;;;;;3.97;2.73;;;;;;;9.57;70.12;99804.94;5118222;27;42613;-82
2023/10/01 04:43:59;;;;;;;4.10;1.90;;;;;;;9.62;70.24;99813.53;5117217;27;38516;-83
2023/10/01 04:46:29;;;;;;;5.30;2.87;;;;;;;9.61;70.34;99817.97;5117817;27;43027;-83
2023/10/01 04:48:57;;;;;;;3.33;2.40;;;;;;;9.51;70.27;99800.78;5134916;27;42503;-83
2023/10/01 04:51:44;;;;;;;3.17;2.87;;;;;;;9.61;70.24;99822.41;5153826;27;43173;-82
2023/10/01 04:54:17;;;;;;;2.97;2.50;;;;;;;9.50;70.47;99806.13;5135156;27;38920;-82
2023/10/01 04:56:45;;;;;;;2.50;2.30;;;;;;;9.45;70.80;99795.75;5135057;27;41640;-82
2023/10/01 04:59:14;;;;;;;4.30;2.70;;;;;;;9.56;70.79;99819.94;5134477;27;41948;-82
2023/10/01 05:01:43;;;;;;;3.57;2.63;;;;;;;9.56;70.97;99825.22;5135229;27;41257;-82
2023/10/01 05:04:14;;;;;;;3.83;2.33;;;;;;;9.55;71.04;99823.50;5135454;27;40118;-84
2023/10/01 05:06:43;;;;;;;3.23;2.20;;;;;;;9.32;71.44;99790.13;5134417;27;40587;-82
2023/10/01 05:09:14;;;;;;;3.33;2.33;;;;;;;9.49;71.18;99823.78;5136836;27;42106;-83
2023/10/01 05:11:44;;;;;;;3.23;2.30;;;;;;;9.51;71.19;99824.59;5134922;27;42931;-83
2023/10/01 05:14:12;;;;;;;2.87;2.23;;;;;;;9.51;71.38;99829.88;5138801;27;40654;-82
2023/10/01 05:16:40;;;;;;;3.60;2.00;;;;;;;9.51;71.29;99837.81;5122027;27;42191;-84
2023/10/01 05:19:10;;;;;;;3.40;2.23;;;;;;;9.52;71.24;99841.31;5138656;27;43804;-81
2023/10/01 05:21:46;;;;;;;3.67;2.70;;;;;;;9.53;71.21;99835.94;5138882;27;41019;-81
2023/10/01 05:24:31;;;;;;;3.57;2.13;;;;;;;9.49;71.14;99829.09;5137896;27;39812;-83
2023/10/01 05:27:00;;;;;;;4.80;2.20;;;;;;;9.55;70.91;99847.31;5154401;27;41838;-83
2023/10/01 05:29:28;;;;;;;3.40;2.47;;;;;;;9.57;70.96;99841.97;5121250;27;41526;-83
2023/10/01 05:31:56;;;;;;;6.30;2.23;;;;;;;9.47;70.85;99841.50;5138887;27;42456;-84
2023/10/01 05:34:28;;;;;;;2.50;2.00;;;;;;;9.60;70.76;99861.22;5120771;27;40066;-81
2023/10/01 05:37:08;;;;;;;3.37;2.10;;;;;;;9.61;70.84;99859.44;5135152;27;41992;-83
2023/10/01 05:39:55;;;;;;;2.80;2.13;;;;;;;9.62;70.70;99859.38;5137928;27;43758;-84
2023/10/01 05:42:25;;;;;;;3.40;2.00;;;;;;;9.50;70.81;99849.31;5119737;27;41046;-82
2023/10/01 05:44:54;;;;;;;4.43;2.23;;;;;;;9.65;70.65;99868.94;5137064;27;39687;-82
2023/10/01 05:47:23;;;;;;;3.97;2.40;;;;;;;9.68;70.38;99868.81;5155573;27;42728;-83
2023/10/01 05:49:53;;;;;;;2.87;2.10;;;;;;;9.72;70.57;99868.63;5120232;27;41650;-82
2023/10/01 05:52:22;;;;;;;2.60;1.90;;;;;;;9.78;70.46;99871.91;5155884;27;42784;-82
2023/10/01 05:54:52;;;;;;;3.93;1.97;;;;;;;9.78;70.50;99867.47;5136963;27;41089;-81
2023/10/01 05:57:22;;;;;;;3.30;2.17;;;;;;;9.78;70.45;99856.91;5119750;27;40410;-82
2023/10/01 05:59:56;;;;;;;3.30;1.83;;;;;;;9.85;70.34;99862.81;5119706;27;41722;-83
2023/10/01 06:02:41;;;;;;;3.30;1.93;;;;;;;10.04;70.18;99874.28;5119512;27;41381;-83
2023/10/01 06:05:25;;;;;;;4.07;2.37;;;;;;;10.14;70.21;99874.78;5137430;27;40118;-82
2023/10/01 06:07:55;;;;;;;3.87;2.30;;;;;;;10.26;70.12;99879.53;5136564;27;42772;-83
2023/10/01 06:10:26;;;;;;;2.83;2.40;;;;;;;10.27;70.28;99855.63;5155202;27;42879;-83
2023/10/01 06:12:56;;;;;;;3.80;2.93;;;;;;;10.44;70.20;99868.97;5119975;27;41129;-84
2023/10/01 06:15:29;;;;;;;5.07;2.80;;;;;;;10.52;70.55;99865.09;5120566;27;38783;-83
2023/10/01 06:18:00;;;;;;;5.43;2.73;;;;;;;10.74;70.30;99876.44;5120179;27;42061;-82
2023/10/01 06:20:31;;;;;;;4.77;2.73;;;;;;;10.88;70.58;99879.25;5134412;27;42879;-83
2023/10/01 06:23:00;;;;;;;4.60;2.97;;;;;;;11.02;70.61;99882.13;5137151;27;41214;-82
2023/10/01 06:25:40;;;;;;;5.13;3.13;;;;;;;11.13;70.86;99876.31;5120310;27;38929;-83
2023/10/01 06:28:14;;;;;;;7.30;3.67;;;;;;;11.30;71.23;99867.53;5153049;27;41713;-83
2023/10/01 06:30:43;;;;;;;5.80;3.83;;;;;;;11.36;71.46;99853.97;5120168;27;42660;-83
2023/10/01 06:33:24;;;;;;;6.13;3.90;;;;;;;11.56;71.76;99856.47;5119898;27;41925;-83
2023/10/01 06:38:39;;;;;;;5.07;3.70;;;;;;;12.18;71.96;99865.69;5136738;27;42032;-83
2023/10/01 06:41:13;;;;;;;6.27;3.80;;;;;;;12.47;71.53;99865.00;5136976;27;42734;-83
2023/10/01 06:43:48;;;;;;;6.53;4.00;;;;;;;12.87;70.86;99881.38;5134122;27;42075;-82
2023/10/01 06:46:21;;;;;;;5.60;3.73;;;;;;;13.00;70.58;99849.66;5136803;27;39099;-84
2023/10/01 06:48:50;;;;;;;6.00;3.83;;;;;;;13.70;69.66;99889.06;5118879;27;40754;-82
2023/10/01 06:51:24;;;;;;;6.50;4.13;;;;;;;14.51;67.64;99877.03;5135795;27;43345;-83
2023/10/01 06:53:58;;;;;;;5.80;3.80;;;;;;;16.10;63.45;99911.03;5118034;27;44141;-83
2023/10/01 06:56:29;;;;;;;4.97;3.93;;;;;;;17.68;58.58;99924.78;5132962;27;41093;-85
2023/10/01 07:01:49;;;;;;;5.77;4.20;;;;;;;20.41;50.66;99972.53;5132181;27;42117;-84
2023/10/01 07:04:19;;;;;;;7.97;4.17;;;;;;;21.54;47.98;99968.00;5135275;27;41302;-84
2023/10/01 07:06:50;;;;;;;6.10;3.93;;;;;;;21.96;46.88;99963.25;5153681;27;40060;-83
2023/10/01 07:12:06;;;;;;;4.30;3.80;;;;;;;21.99;46.67;99973.78;5118866;27;43201;-83
2023/10/01 07:14:43;;;;;;;5.70;4.00;;;;;;;22.83;45.49;99979.41;5154830;27;43150;-83
2023/10/01 07:17:14;;;;;;;5.40;3.80;;;;;;;22.88;44.21;99993.31;5119636;27;39226;-85
2023/10/01 07:19:41;;;;;;;5.30;3.80;;;;;;;23.04;44.14;99987.28;5136358;27;40829;-83
2023/10/01 07:22:13;;;;;;;6.67;4.37;;;;;;;22.61;44.58;99985.97;5155243;27;43060;-82
2023/10/01 07:24:40;;;;;;;4.67;4.13;;;;;;;22.53;44.05;99986.66;5119086;27;42792;-82
2023/10/01 07:27:11;;;;;;;6.83;5.27;;;;;;;22.11;44.52;99958.31;5137137;27;40252;-82
2023/10/01 07:29:41;;;;;;;6.23;4.13;;;;;;;21.38;46.35;99967.69;5136528;27;41111;-82
2023/10/01 07:32:12;;;;;;;5.70;4.30;;;;;;;20.58;47.87;99951.41;5136104;27;42411;-83
2023/10/01 07:34:40;;;;;;;5.33;3.80;;;;;;;20.13;48.52;99953.50;5119046;27;41288;-85
2023/10/01 07:37:08;;;;;;;4.87;3.60;;;;;;;19.70;49.73;99939.09;5136868;27;39358;-82
2023/10/01 07:39:40;;;;;;;6.47;3.80;;;;;;;19.47;50.31;99942.81;5136267;27;41697;-84
2023/10/01 07:42:10;;;;;;;6.73;4.00;;;;;;;19.33;50.70;99946.63;5147002;27;43800;-83
2023/10/01 07:44:38;;;;;;;5.57;4.07;;;;;;;19.02;51.15;99950.94;5173078;27;44815;-82
2023/10/01 07:47:06;;;;;;;5.13;3.83;;;;;;;18.88;51.62;99948.50;5120249;27;39714;-83
2023/10/01 07:49:50;;;;;;;8.37;5.20;;;;;;;18.91;51.75;99950.94;5119512;27;20224;-84
2023/10/01 07:52:18;;;;;;;7.10;4.30;;;;;;;19.12;51.36;99951.06;5117822;27;44142;-82
2023/10/01 07:54:49;;;;;;;6.20;4.37;;;;;;;19.18;51.78;99952.38;5153238;27;42389;-83
2023/10/01 07:57:24;;;;;;;7.50;4.57;;;;;;;19.11;51.74;99935.91;5117881;27;39045;-84
2023/10/01 07:59:53;;;;;;;4.97;4.07;;;;;;;19.35;52.68;99938.44;5134908;27;42643;-82
2023/10/01 08:02:28;;;;;;;6.00;4.27;;;;;;;19.42;52.24;99923.50;5153349;27;43573;-83
2023/10/01 08:04:58;;;;;;;6.23;4.33;;;;;;;19.92;51.44;99934.63;5131661;27;42141;-84
2023/10/01 08:07:42;;;;;;;8.20;4.70;;;;;;;20.50;51.27;99937.78;5134877;27;39724;-83
2023/10/01 08:10:18;;;;;;;5.87;4.30;;;;;;;21.13;50.16;99947.44;5152885;27;42965;-84
2023/10/01 08:15:38;;;;;;;8.37;4.60;;;;;;;21.74;48.83;99945.50;5136004;27;40942;-83
2023/10/01 08:18:34;;;;;;;5.00;3.77;;;;;;;22.13;48.08;99959.84;5133485;27;40118;-83
2023/10/01 08:21:04;;;;;;;7.90;4.43;;;;;;;22.36;46.65;99965.81;5132861;27;41834;-83
2023/10/01 08:23:33;;;;;;;5.13;3.90;;;;;;;22.60;46.28;99959.09;5135376;27;42697;-84
2023/10/01 08:26:41;;;;;;;5.90;4.30;;;;;;;22.89;45.90;99957.19;5135892;27;42295;-84
2023/10/01 08:28:57;;;;;;;5.30;4.03;;;;;;;23.45;44.63;99970.59;5135548;27;39035;-84
2023/10/01 08:34:27;;;;;;;6.47;4.53;;;;;;;24.58;43.09;99987.16;5153277;27;43829;-84
2023/10/01 08:36:55;;;;;;;6.80;4.20;;;;;;;25.12;42.03;99979.72;5132721;27;42461;-84
2023/10/01 08:39:33;;;;;;;5.77;4.20;;;;;;;25.50;41.40;99961.25;5135110;27;39904;-84
2023/10/01 08:42:08;;;;;;;5.00;4.23;;;;;;;26.32;40.09;99964.03;5150416;27;41860;-84
2023/10/01 08:44:47;;;;;;;7.23;4.13;;;;;;;27.54;37.35;99990.97;5119890;27;44223;-85
2023/10/01 08:47:26;;;;;;;6.50;4.27;;;;;;;28.39;36.37;100001.88;5135148;27;42245;-85
2023/10/01 08:49:55;;;;;;;4.77;3.87;;;;;;;29.00;35.21;100006.28;5137785;27;41708;-84
2023/10/01 08:52:25;;;;;;;5.90;4.10;;;;;;;29.69;34.33;100011.47;5156064;27;41922;-84
2023/10/01 08:54:55;;;;;;;6.27;4.30;;;;;;;29.93;33.76;100005.66;5137595;27;43321;-85
2023/10/01 08:57:37;;;;;;;6.83;3.87;;;;;;;29.73;33.56;100026.44;5156347;27;42520;-85
2023/10/01 09:00:17;;;;;;;6.30;4.50;;;;;;;29.11;35.04;99994.91;5138091;27;39792;-85
2023/10/01 09:02:50;;;;;;;5.67;3.93;;;;;;;29.15;34.57;100006.31;5153121;27;42396;-83
2023/10/01 09:05:23;;;;;;;8.93;4.80;;;;;;;29.28;34.52;100018.28;5120348;27;42934;-84
2023/10/01 09:08:14;;;;;;;6.18;4.47;;;;;;;29.73;33.86;99999.13;5137436;27;43172;-84
2023/10/01 09:10:53;;;;;;;6.30;4.55;;;;;;;30.35;33.02;100015.84;5137010;27;38971;-85
2023/10/01 09:13:21;;;;;;;10.37;4.80;;;;;;;30.27;32.84;100011.34;5120728;27;40452;-84
2023/10/01 09:15:54;;;;;;;5.80;4.60;;;;;;;29.64;33.89;100001.97;5120964;27;41901;-83
2023/10/01 09:18:23;;;;;;;5.10;3.93;;;;;;;28.95;34.11;100012.28;5138418;27;42423;-84
2023/10/01 09:21:09;;;;;;;7.10;4.80;;;;;;;28.26;34.93;99998.91;5121429;27;39060;-84
2023/10/01 09:23:55;;;;;;;7.73;4.07;;;;;;;27.73;35.63;99992.41;5138167;27;40837;-84
2023/10/01 09:26:39;;;;;;;7.10;4.13;;;;;;;27.33;36.73;99975.22;5138502;27;41588;-84
2023/10/01 09:29:21;;;;;;;7.10;4.30;;;;;;;26.96;37.27;99961.41;5137467;27;42330;-84
2023/10/01 09:31:53;;;;;;;5.40;3.53;;;;;;;26.91;38.09;99971.94;5138423;27;40018;-84
2023/10/01 09:37:17;;;;;;;5.60;3.77;;;;;;;27.20;38.20;99969.47;5138496;27;41860;-84
2023/10/01 09:39:45;;;;;;;5.93;3.83;;;;;;;27.00;38.73;99957.31;5120659;27;41174;-84
2023/10/01 09:42:25;;;;;;;4.93;3.90;;;;;;;26.93;38.54;99962.63;5136325;27;39245;-84
2023/10/01 09:45:09;;;;;;;6.23;4.13;;;;;;;26.94;37.83;99947.16;5136627;27;42690;-84
2023/10/01 09:47:37;;;;;;;6.83;4.20;;;;;;;27.04;38.40;99969.56;5119630;27;42167;-84
2023/10/01 09:50:06;;;;;;;6.93;4.00;;;;;;;26.95;39.07;99949.69;5119758;27;41283;-84
2023/10/01 09:52:48;;;;;;;6.03;3.93;;;;;;;26.90;38.17;99962.06;5136717;27;39544;-84
2023/10/01 09:55:26;;;;;;;6.77;3.93;;;;;;;26.93;38.58;99956.31;5150885;27;42747;-85
2023/10/01 09:57:55;;;;;;;6.57;3.73;;;;;;;27.34;37.82;99960.59;5133477;27;42760;-83
2023/10/01 10:00:39;;;;;;;6.80;4.40;;;;;;;27.60;37.92;99933.09;5119254;27;42903;-83
2023/10/01 10:03:11;;;;;;;7.43;4.47;;;;;;;28.24;36.64;99969.97;5119021;27;40223;-84
2023/10/01 10:05:40;;;;;;;5.97;4.00;;;;;;;28.61;36.29;99968.28;5136431;27;42165;-84
2023/10/01 10:08:20;;;;;;;7.13;3.80;;;;;;;29.46;34.99;99963.31;5135914;27;41595;-85
2023/10/01 10:10:52;;;;;;;5.40;4.13;;;;;;;31.49;32.05;99986.44;5119500;27;41044;-84
2023/10/01 10:13:45;;;;;;;6.60;4.35;;;;;;;33.40;29.87;100008.66;5136647;27;39123;-84
2023/10/01 10:16:31;;;;;;;6.90;3.70;;;;;;;33.44;30.07;99994.28;5134759;27;41959;-84
2023/10/01 10:19:08;;;;;;;7.63;3.92;;;;;;;33.79;29.72;99996.69;5120221;27;42514;-84
2023/10/01 10:22:10;;;;;;;5.95;4.47;;;;;;;33.72;29.43;100002.22;5137698;27;42499;-84
2023/10/01 10:24:45;;;;;;;7.07;4.35;;;;;;;33.54;29.56;99999.31;5119641;27;39982;-85
2023/10/01 10:27:17;;;;;;;6.77;4.00;;;;;;;34.16;28.35;99992.28;5120123;27;41634;-85
2023/10/01 10:30:16;;;;;;;7.07;4.23;;;;;;;34.44;28.06;99995.50;5137120;27;42983;-85
2023/10/01 10:33:38;;;;;;;7.73;4.40;;;;;;;34.89;27.16;99998.09;5133975;27;43132;-85
2023/10/01 10:36:35;;;;;;;8.07;4.43;;;;;;;36.35;26.13;99998.91;5126813;27;39058;-85
2023/10/01 10:39:15;;;;;;;6.28;4.30;;;;;;;37.57;24.37;99999.13;5136647;27;41761;-86
2023/10/01 10:42:15;;;;;;;6.70;4.22;;;;;;;38.83;22.71;100016.50;5119008;27;42334;-85
2023/10/01 10:45:22;;;;;;;7.07;4.63;;;;;;;40.07;21.73;100016.91;5118558;27;42274;-86
2023/10/01 10:47:59;;;;;;;6.93;4.65;;;;;;;41.21;20.64;100015.75;5128441;27;39461;-85
2023/10/01 10:50:49;;;;;;;6.00;4.00;;;;;;;42.33;19.75;100005.09;5140650;27;41712;-87
2023/10/01 10:53:19;;;;;;;8.35;4.72;;;;;;;42.85;19.37;99991.78;5137805;27;43298;-87
2023/10/01 10:56:13;;;;;;;6.05;4.38;;;;;;;43.06;19.00;100012.09;5136011;27;42303;-86
2023/10/01 10:58:47;;;;;;;7.55;4.50;;;;;;;43.19;18.87;99996.78;5134381;27;39724;-86
2023/10/01 11:01:19;;;;;;;7.50;4.82;;;;;;;42.73;19.25;99982.00;5118345;27;40821;-85
2023/10/01 11:03:49;;;;;;;6.00;4.32;;;;;;;42.67;19.03;99989.53;5117864;27;43090;-86
2023/10/01 11:06:18;;;;;;;6.97;4.60;;;;;;;43.38;18.47;99986.69;5116686;27;41331;-86
2023/10/01 11:08:53;;;;;;;5.43;4.25;;;;;;;44.37;17.85;99985.66;5135718;27;40910;-86
2023/10/01 11:11:24;;;;;;;6.75;4.97;;;;;;;45.55;16.78;100000.19;5118565;27;40812;-85
2023/10/01 11:14:00;;;;;;;4.95;4.35;;;;;;;46.62;15.84;100002.31;5119251;27;42252;-85
2023/10/01 11:16:36;;;;;;;5.60;4.50;;;;;;;47.34;14.92;99999.09;5118786;27;42081;-84
2023/10/01 11:19:13;;;;;;;6.50;5.15;;;;;;;47.66;14.74;99993.38;5135392;27;41201;-83
2023/10/01 11:21:56;;;;;;;6.38;4.53;;;;;;;48.00;14.84;99989.25;5133160;27;41881;-85
2023/10/01 11:24:25;;;;;;;8.60;5.10;;;;;;;47.94;15.13;99982.13;5135516;27;42028;-82
2023/10/01 11:27:43;;;;;;;6.80;5.13;;;;;;;46.50;15.83;99969.13;5118281;27;41090;-84
2023/10/01 11:30:16;;;;;;;6.22;4.72;;;;;;;44.85;16.85;99943.88;5035595;28;39269;-84
2023/10/01 11:33:01;;;;;;;5.25;4.45;;;;;;;44.58;17.61;99946.34;5129716;27;42381;-85
2023/10/01 11:35:33;;;;;;;6.63;4.65;;;;;;;45.39;16.19;99942.72;5135355;27;42103;-86
2023/10/01 11:38:07;;;;;;;6.47;4.70;;;;;;;46.75;15.68;99939.84;5151080;27;42497;-85
2023/10/01 11:43:32;;;;;;;9.68;4.90;;;;;;;48.87;13.88;99955.09;5117626;27;42025;-86
2023/10/01 11:46:21;;;;;;;5.18;4.68;;;;;;;49.67;13.73;99950.28;5132051;27;42867;-85
2023/10/01 11:48:57;;;;;;;5.07;4.50;;;;;;;49.88;13.31;99943.69;5117094;27;41367;-85
2023/10/01 11:51:32;;;;;;;6.30;5.13;;;;;;;49.49;12.84;99936.13;5150303;27;40005;-86
2023/10/01 11:57:01;;;;;;;4.88;4.35;;;;;;;49.24;13.16;99937.72;5135136;27;42152;-83
2023/10/01 11:59:30;;;;;;;7.10;5.35;;;;;;;48.97;13.27;99915.41;5134600;27;42935;-85
2023/10/01 12:02:15;;;;;;;5.28;4.45;;;;;;;49.34;13.79;99928.13;5135127;27;40083;-84
2023/10/01 12:04:48;;;;;;;5.82;4.88;;;;;;;49.53;13.00;99928.72;5117106;27;40660;-85
2023/10/01 12:07:16;;;;;;;6.45;4.88;;;;;;;49.50;13.60;99908.78;5117481;27;41722;-85
2023/10/01 12:09:51;;;;;;;5.85;4.75;;;;;;;48.73;13.60;99906.50;5152315;27;42736;-84
2023/10/01 12:12:21;;;;;;;5.10;4.18;;;;;;;47.75;14.07;99901.63;5117717;27;40991;-84
2023/10/01 12:14:57;;;;;;;6.75;4.47;;;;;;;47.37;14.44;99897.38;5118209;27;41759;-84
2023/10/01 12:17:29;;;;;;;5.72;4.63;;;;;;;47.53;14.58;99901.56;5120049;27;42880;-85
2023/10/01 12:19:59;;;;;;;5.80;4.05;;;;;;;47.47;14.05;99888.78;5136293;27;42360;-84
2023/10/01 12:22:28;;;;;;;6.55;4.55;;;;;;;47.06;14.63;99889.63;5121881;27;39045;-85
2023/10/01 12:24:58;;;;;;;8.30;4.93;;;;;;;45.93;15.46;99891.06;5121696;27;41954;-84
2023/10/01 12:27:40;;;;;;;5.38;4.53;;;;;;;45.00;15.29;99875.78;5121778;27;43197;-84
2023/10/01 12:33:10;;;;;;;6.43;4.22;;;;;;;43.79;16.29;99860.91;5171279;27;20605;-83
2023/10/01 12:35:39;;;;;;;5.68;4.28;;;;;;;43.24;16.73;99877.69;5171102;27;39905;-83
2023/10/01 12:38:22;;;;;;;7.13;5.28;;;;;;;43.32;16.56;99863.13;5153345;27;41109;-84